Time;durP1;ratioP1;P1;durP2;ratioP2;P2;SDS_P1;SDS_P2;PMS_P1;PMS_P2;Temp;Humidity;BMP_temperature;BMP_pressure;BME280_temperature;BME280_humidity;BME280_pressure;Samples;Min_cycle;Max_cycle;Signal;HPM_P1;HPM_P2
2022/07/04 00:03:51;;;;;;;2.07;1.17;;;27.10;45.20;;;;;;5778089;24;20788;-81
2022/07/04 00:06:28;;;;;;;2.17;1.13;;;27.10;45.20;;;;;;5755986;24;20416;-82
2022/07/04 00:09:42;;;;;;;;;;;;;;;;;;;;;
2022/07/04 00:12:39;;;;;;;1.30;1.20;;;27.10;45.20;;;;;;5777622;24;20435;-81
2022/07/04 00:15:12;;;;;;;1.50;1.30;;;27.10;45.20;;;;;;5762336;24;20920;-81
2022/07/04 00:24:02;;;;;;;;;;;;;;;;;;;;;
2022/07/04 00:26:58;;;;;;;1.67;1.57;;;27.10;45.20;;;;;;5830252;24;20421;-81
2022/07/04 00:29:32;;;;;;;1.20;1.10;;;27.10;45.20;;;;;;5830698;24;20466;-82
2022/07/04 00:32:30;;;;;;;1.50;1.27;;;27.10;45.20;;;;;;5830210;24;20371;-81
2022/07/04 00:38:26;;;;;;;1.87;1.23;;;27.10;45.20;;;;;;6101269;23;20384;-82
2022/07/04 00:41:17;;;;;;;2.77;1.33;;;27.10;45.20;;;;;;6110102;23;20975;-81
2022/07/04 00:44:13;;;;;;;1.40;1.30;;;27.10;45.30;;;;;;6109034;23;20448;-81
2022/07/04 00:46:56;;;;;;;1.90;1.70;;;27.10;45.30;;;;;;6111897;23;20907;-81
2022/07/04 00:49:29;;;;;;;1.50;1.20;;;27.10;45.30;;;;;;6111174;23;20417;-81
2022/07/04 00:52:15;;;;;;;1.93;1.37;;;27.10;45.30;;;;;;6110337;23;20394;-81
2022/07/04 01:08:14;;;;;;;;;;;;;;;;;;;;;
2022/07/04 01:27:40;;;;;;;1.53;1.43;;;27.10;45.60;;;;;;6026680;23;20378;-81
2022/07/04 01:30:45;;;;;;;2.80;1.40;;;27.10;45.60;;;;;;6052013;23;20379;-81
2022/07/04 02:04:31;;;;;;;1.70;1.40;;;27.10;45.90;;;;;;5880759;24;20434;-81
2022/07/04 02:13:00;;;;;;;1.87;1.63;;;27.10;46.00;;;;;;5909114;24;20460;-81
2022/07/04 02:44:41;;;;;;;;;;;;;;;;;;;;;
2022/07/04 02:57:39;;;;;;;2.70;1.70;;;27.00;46.30;;;;;;5792383;24;20373;-81
2022/07/04 03:31:22;;;;;;;1.90;1.70;;;26.90;46.40;;;;;;5869517;24;20419;-83
2022/07/04 03:58:48;;;;;;;;;;;;;;;;;;;;;
2022/07/04 04:41:41;;;;;;;1.83;1.53;;;26.70;46.40;;;;;;5829286;24;20386;-82
2022/07/04 05:05:08;;;;;;;3.40;2.17;;;26.70;46.60;;;;;;5940547;24;20368;-84
2022/07/04 05:29:23;;;;;;;1.93;1.67;;;26.80;46.70;;;;;;5859623;24;20380;-84
2022/07/04 05:32:24;;;;;;;2.70;2.00;;;26.80;46.70;;;;;;5845536;24;20498;-83
2022/07/04 05:35:13;;;;;;;3.20;1.90;;;26.80;46.70;;;;;;5864278;24;20409;-83
2022/07/04 05:38:28;;;;;;;2.63;1.93;;;26.80;46.60;;;;;;5861186;24;20484;-84
2022/07/04 06:02:16;;;;;;;1.93;1.73;;;26.90;46.60;;;;;;5861392;24;20370;-84
2022/07/04 06:18:30;;;;;;;1.80;1.70;;;26.90;46.70;;;;;;5807910;24;20378;-84
2022/07/04 06:20:56;;;;;;;1.80;1.53;;;26.90;46.70;;;;;;5807147;24;20446;-83
2022/07/04 06:23:32;;;;;;;2.23;2.00;;;26.90;46.70;;;;;;5787226;24;20407;-83
2022/07/04 06:26:40;;;;;;;3.57;1.70;;;26.90;46.60;;;;;;5856915;24;20401;-83
2022/07/04 06:29:32;;;;;;;1.97;1.77;;;26.90;46.60;;;;;;5837657;24;20394;-83
2022/07/04 06:32:07;;;;;;;2.03;1.77;;;26.90;46.60;;;;;;5860303;24;20449;-82
2022/07/04 06:38:09;;;;;;;2.67;1.80;;;26.90;46.60;;;;;;5861126;24;20399;-84
2022/07/04 06:44:23;;;;;;;;;;;;;;;;;;;;;
2022/07/04 06:54:23;;;;;;;;;;;;;;;;;;;;;
2022/07/04 06:57:50;;;;;;;;;;;;;;;;;;;;;
2022/07/04 07:15:02;;;;;;;2.40;2.13;;;26.90;46.80;;;;;;5777500;24;20396;-82
2022/07/04 07:38:37;;;;;;;3.30;1.93;;;26.90;46.80;;;;;;5778775;24;20450;-82
2022/07/04 07:41:48;;;;;;;;;;;;;;;;;;;;;
2022/07/04 08:13:03;;;;;;;;;;;;;;;;;;;;;
2022/07/04 08:50:11;;;;;;;;;;;;;;;;;;;;;
2022/07/04 09:41:42;;;;;;;3.00;2.80;;;27.00;46.80;;;;;;5792344;24;20442;-80
2022/07/04 11:25:02;;;;;;;4.63;3.20;;;27.10;46.00;;;;;;5751568;25;20376;-83
2022/07/04 11:49:17;;;;;;;;;;;;;;;;;;;;;
2022/07/04 11:52:12;;;;;;;3.30;2.77;;;27.10;46.00;;;;;;5485426;26;20395;-83
2022/07/04 11:56:03;;;;;;;;;;;;;;;;;;;;;
2022/07/04 12:15:28;;;;;;;;;;;;;;;;;;;;;
2022/07/04 12:26:11;;;;;;;;;;;;;;;;;;;;;
2022/07/04 12:39:47;;;;;;;;;;;;;;;;;;;;;
2022/07/04 12:46:36;;;;;;;2.20;1.77;;;27.10;44.70;;;;;;5858509;24;20364;-83
2022/07/04 12:49:53;;;;;;;3.40;1.60;;;27.10;44.60;;;;;;5831989;24;20394;-83
2022/07/04 13:27:25;;;;;;;1.43;1.33;;;27.10;43.60;;;;;;5751623;25;20393;-83
2022/07/04 13:30:04;;;;;;;1.80;1.70;;;27.10;43.80;;;;;;5710217;25;20391;-81
2022/07/04 13:32:33;;;;;;;1.50;1.33;;;27.10;43.60;;;;;;5718573;25;20417;-81
2022/07/04 13:35:03;;;;;;;1.67;1.53;;;27.20;43.60;;;;;;5727721;25;20504;-81
2022/07/04 13:37:32;;;;;;;1.60;1.50;;;27.20;43.70;;;;;;5728127;25;20398;-81
2022/07/04 13:39:58;;;;;;;1.60;1.50;;;27.20;43.80;;;;;;5727784;25;20552;-81
2022/07/04 13:45:14;;;;;;;1.60;1.20;;;27.20;43.90;;;;;;5730892;25;20389;-81
2022/07/04 13:47:39;;;;;;;1.40;1.30;;;27.20;44.00;;;;;;5752535;25;20382;-81
2022/07/04 13:50:09;;;;;;;1.50;1.30;;;27.30;44.70;;;;;;5756374;24;20394;-81
2022/07/04 13:52:37;;;;;;;1.50;1.40;;;27.30;44.20;;;;;;5740524;24;20170;-81
2022/07/04 13:55:03;;;;;;;1.40;1.30;;;27.30;44.30;;;;;;5850424;24;20467;-81
2022/07/04 13:57:29;;;;;;;1.37;1.20;;;27.30;44.30;;;;;;5970027;24;20388;-81
2022/07/04 13:59:55;;;;;;;1.90;1.40;;;27.30;44.30;;;;;;6013536;23;20480;-81
2022/07/04 14:02:21;;;;;;;2.07;1.53;;;27.30;44.40;;;;;;6089731;23;20394;-80
2022/07/04 14:04:47;;;;;;;2.07;1.77;;;27.30;44.50;;;;;;6088854;23;20153;-81
2022/07/04 14:07:41;;;;;;;2.43;1.37;;;27.30;44.60;;;;;;6090324;23;20385;-82
2022/07/04 14:10:07;;;;;;;1.70;1.33;;;27.40;44.60;;;;;;6082134;23;20390;-81
2022/07/04 14:12:33;;;;;;;1.93;1.30;;;27.40;44.60;;;;;;6089308;23;20436;-81
2022/07/04 14:14:59;;;;;;;1.33;1.10;;;27.40;44.60;;;;;;6117743;23;20412;-81
2022/07/04 14:17:25;;;;;;;2.33;1.33;;;27.40;44.60;;;;;;6119341;23;20165;-81
2022/07/04 14:20:39;;;;;;;1.83;1.67;;;27.40;44.70;;;;;;6118441;23;20428;-81
2022/07/04 14:23:05;;;;;;;4.40;1.20;;;27.40;44.70;;;;;;6119527;23;20141;-81
2022/07/04 14:25:30;;;;;;;2.70;1.60;;;27.40;44.80;;;;;;6144824;23;20371;-81
2022/07/04 14:27:56;;;;;;;3.83;1.20;;;27.40;44.80;;;;;;6144656;23;20148;-81
2022/07/04 14:30:25;;;;;;;1.70;1.33;;;27.40;44.80;;;;;;6118936;23;20211;-82
2022/07/04 14:32:50;;;;;;;1.37;1.20;;;27.50;44.90;;;;;;6144004;23;20452;-81
2022/07/04 14:35:18;;;;;;;1.83;1.33;;;27.50;44.90;;;;;;6118179;23;20392;-81
2022/07/04 14:37:43;;;;;;;1.60;1.07;;;27.50;44.80;;;;;;6118926;23;20164;-82
2022/07/04 14:40:10;;;;;;;1.50;1.30;;;27.50;44.80;;;;;;6144260;23;20787;-81
2022/07/04 14:42:36;;;;;;;1.87;1.17;;;27.50;44.80;;;;;;6144049;23;20145;-81
2022/07/04 14:45:02;;;;;;;1.93;1.00;;;27.50;44.80;;;;;;6118588;23;20381;-82
2022/07/04 14:47:31;;;;;;;1.97;1.33;;;27.50;44.80;;;;;;6118346;23;20416;-82
2022/07/04 14:49:57;;;;;;;2.70;1.20;;;27.50;44.80;;;;;;6118172;23;20393;-82
2022/07/04 14:52:23;;;;;;;1.53;1.20;;;27.60;44.80;;;;;;6117362;23;20428;-82
2022/07/04 14:54:48;;;;;;;3.43;1.57;;;27.60;44.80;;;;;;6143865;23;20224;-82
2022/07/04 14:57:14;;;;;;;1.50;1.30;;;27.60;44.80;;;;;;6118119;23;20200;-82
2022/07/04 14:59:43;;;;;;;2.37;1.53;;;27.60;44.80;;;;;;6118086;23;20157;-82
2022/07/04 15:02:09;;;;;;;1.73;1.40;;;27.60;44.80;;;;;;6118122;23;20692;-81
2022/07/04 15:04:35;;;;;;;2.07;1.17;;;27.60;44.80;;;;;;6117598;23;20463;-81
2022/07/04 15:07:02;;;;;;;1.53;1.20;;;27.60;44.80;;;;;;6118494;23;20389;-81
2022/07/04 15:09:27;;;;;;;2.23;1.27;;;27.60;44.80;;;;;;6095108;23;20157;-82
2022/07/04 15:11:53;;;;;;;1.40;1.30;;;27.60;44.80;;;;;;6143605;23;20396;-82
2022/07/04 15:14:20;;;;;;;1.30;1.20;;;27.60;44.90;;;;;;6143484;23;20165;-81
2022/07/04 15:16:45;;;;;;;1.10;1.00;;;27.60;44.80;;;;;;6143515;23;20396;-80
2022/07/04 15:19:14;;;;;;;1.30;1.10;;;27.60;44.80;;;;;;6144535;23;20699;-81
2022/07/04 15:24:26;;;;;;;1.33;1.23;;;27.60;44.80;;;;;;6145088;23;20387;-81
2022/07/04 15:26:57;;;;;;;1.80;1.27;;;27.60;45.40;;;;;;6119307;23;20444;-80
2022/07/04 15:29:25;;;;;;;1.57;1.17;;;27.60;44.80;;;;;;6142735;23;20381;-80
2022/07/04 15:31:51;;;;;;;1.40;1.30;;;27.70;44.80;;;;;;6119073;23;20389;-80
2022/07/04 15:34:19;;;;;;;1.87;1.10;;;27.70;44.80;;;;;;6142693;23;20385;-81
2022/07/04 15:36:45;;;;;;;1.40;1.27;;;27.70;44.80;;;;;;6118829;23;20460;-81
2022/07/04 15:39:24;;;;;;;1.23;1.13;;;27.70;44.80;;;;;;6117443;23;20483;-81
2022/07/04 15:41:50;;;;;;;1.20;1.10;;;27.60;44.60;;;;;;6117225;23;20424;-81
2022/07/04 15:44:16;;;;;;;1.77;1.40;;;27.70;44.70;;;;;;6142911;23;20392;-81
2022/07/04 15:49:26;;;;;;;1.60;1.17;;;27.70;44.70;;;;;;6143628;23;20360;-81
2022/07/04 15:51:52;;;;;;;1.30;1.13;;;27.70;44.60;;;;;;6118455;23;20452;-81
2022/07/04 15:54:18;;;;;;;2.00;1.17;;;27.70;44.60;;;;;;6142599;23;20387;-81
2022/07/04 15:56:44;;;;;;;2.00;1.20;;;27.70;44.60;;;;;;6143448;23;20157;-81
2022/07/04 15:59:10;;;;;;;1.30;1.20;;;27.70;44.60;;;;;;6143950;23;20361;-80
2022/07/04 16:01:43;;;;;;;2.13;1.10;;;27.70;44.60;;;;;;6093422;23;20237;-81
2022/07/04 16:04:09;;;;;;;1.40;1.20;;;27.70;44.60;;;;;;6143775;23;20357;-82
2022/07/04 16:06:39;;;;;;;1.00;0.90;;;27.70;44.60;;;;;;6093873;23;20453;-81
2022/07/04 16:09:08;;;;;;;1.10;1.00;;;27.70;44.60;;;;;;6118155;23;20372;-81
2022/07/04 16:11:37;;;;;;;1.43;1.33;;;27.70;44.60;;;;;;6143684;23;20377;-81
2022/07/04 16:14:04;;;;;;;1.70;1.30;;;27.80;44.70;;;;;;6144792;23;20393;-81
2022/07/04 16:16:31;;;;;;;2.30;1.20;;;27.80;44.70;;;;;;6118088;23;20816;-81
2022/07/04 16:18:59;;;;;;;1.60;1.20;;;27.80;44.60;;;;;;6118606;23;20413;-82
2022/07/04 16:21:25;;;;;;;1.50;1.10;;;27.80;44.60;;;;;;6117561;23;20439;-81
2022/07/04 16:23:54;;;;;;;1.63;1.30;;;27.80;44.60;;;;;;6118881;23;20428;-81
2022/07/04 16:26:20;;;;;;;1.23;1.13;;;27.80;44.50;;;;;;6143624;23;20783;-81
2022/07/04 16:28:48;;;;;;;2.30;1.30;;;27.80;44.50;;;;;;6117990;23;20439;-81
2022/07/04 16:31:14;;;;;;;1.50;1.10;;;27.80;44.60;;;;;;6142800;23;20380;-81
2022/07/04 16:34:40;;;;;;;1.30;1.10;;;27.80;44.60;;;;;;6141782;23;20396;-82
2022/07/04 16:57:38;;;;;;;1.23;1.13;;;27.70;44.80;;;;;;5830727;24;20388;-81
2022/07/04 17:00:05;;;;;;;2.23;1.07;;;27.70;44.90;;;;;;5808410;24;20481;-82
2022/07/04 17:02:34;;;;;;;1.93;1.30;;;27.80;44.90;;;;;;5809544;24;20161;-82
2022/07/04 17:05:50;;;;;;;1.30;1.00;;;27.80;44.90;;;;;;5811067;24;20436;-82
2022/07/04 17:08:25;;;;;;;1.50;1.40;;;27.80;45.40;;;;;;5833049;24;20446;-80
2022/07/04 17:10:51;;;;;;;1.30;1.20;;;27.80;44.80;;;;;;5833535;24;20393;-81
2022/07/04 17:13:29;;;;;;;1.77;1.00;;;27.80;44.80;;;;;;5846438;24;20391;-81
2022/07/04 17:15:57;;;;;;;2.60;1.27;;;27.80;44.70;;;;;;5918109;24;20164;-82
2022/07/04 17:18:34;;;;;;;1.20;1.00;;;27.80;44.70;;;;;;5942626;24;20397;-82
2022/07/04 17:21:02;;;;;;;1.40;1.27;;;27.80;44.60;;;;;;5920375;24;20547;-82
2022/07/04 17:23:35;;;;;;;2.00;1.30;;;27.80;44.70;;;;;;5943296;24;20437;-82
2022/07/04 17:26:02;;;;;;;3.53;1.30;;;27.80;44.70;;;;;;5976039;24;20381;-82
2022/07/04 17:28:27;;;;;;;1.30;1.10;;;27.80;44.70;;;;;;6000516;23;20373;-81
2022/07/04 17:30:55;;;;;;;1.50;1.00;;;27.80;44.70;;;;;;6143383;23;20389;-82
2022/07/04 17:33:21;;;;;;;1.40;1.30;;;27.80;44.70;;;;;;6144476;23;20149;-82
2022/07/04 17:35:47;;;;;;;1.10;1.00;;;27.80;44.70;;;;;;6119326;23;20384;-82
2022/07/04 17:38:15;;;;;;;1.10;1.00;;;27.90;44.80;;;;;;6118357;23;20396;-82
2022/07/04 17:40:41;;;;;;;4.63;1.17;;;27.90;44.80;;;;;;6118313;23;20420;-82
2022/07/04 17:43:07;;;;;;;1.17;1.00;;;27.90;44.80;;;;;;6118346;23;20387;-82
2022/07/04 17:45:33;;;;;;;1.87;1.13;;;27.90;44.80;;;;;;6118884;23;20162;-82
2022/07/04 17:47:59;;;;;;;3.63;1.10;;;27.90;44.70;;;;;;6142724;23;20400;-80
2022/07/04 17:50:33;;;;;;;1.50;1.00;;;27.90;44.70;;;;;;6142387;23;20368;-80
2022/07/04 17:53:00;;;;;;;1.63;1.20;;;27.90;44.70;;;;;;6115967;23;20157;-80
2022/07/04 17:55:25;;;;;;;1.50;1.20;;;27.90;44.70;;;;;;6141257;23;20383;-80
2022/07/04 18:01:14;;;;;;;1.20;0.97;;;27.90;44.60;;;;;;6141821;23;20184;-80
2022/07/04 18:03:40;;;;;;;1.13;0.93;;;27.90;44.70;;;;;;6141267;23;20771;-80
2022/07/04 18:09:28;;;;;;;1.80;0.90;;;27.90;44.70;;;;;;6141415;23;20882;-80
2022/07/04 18:12:06;;;;;;;2.80;1.10;;;27.90;44.80;;;;;;6138996;23;20412;-79
2022/07/04 18:14:39;;;;;;;1.80;1.37;;;27.90;44.80;;;;;;6109799;23;20173;-80
2022/07/04 18:20:32;;;;;;;1.80;1.00;;;27.90;44.70;;;;;;6109636;23;20440;-80
2022/07/04 18:22:59;;;;;;;1.50;1.00;;;27.90;44.70;;;;;;6109200;23;20393;-80
2022/07/04 18:25:48;;;;;;;1.47;0.90;;;27.90;44.70;;;;;;6085645;23;20389;-80
2022/07/04 18:28:24;;;;;;;1.37;0.97;;;27.90;44.70;;;;;;6084974;23;20837;-80
2022/07/04 18:30:53;;;;;;;1.10;1.00;;;27.90;44.70;;;;;;6084715;23;20381;-80
2022/07/04 18:57:15;;;;;;;;;;;;;;;;;;;;;
2022/07/04 19:14:00;;;;;;;;;;;;;;;;;;;;;
2022/07/04 19:37:36;;;;;;;1.90;1.70;;;27.60;42.10;;;;;;5804804;24;20394;-79
2022/07/04 19:57:57;;;;;;;2.10;1.47;;;27.60;42.40;;;;;;5588332;25;20376;-78
2022/07/04 20:04:51;;;;;;;1.87;1.40;;;27.60;42.30;;;;;;5542127;25;20388;-80
2022/07/04 20:38:32;;;;;;;;;;;;;;;;;;;;;
2022/07/04 20:41:37;;;;;;;;;;;;;;;;;;;;;
2022/07/04 20:45:03;;;;;;;;;;;;;;;;;;;;;
2022/07/04 21:02:10;;;;;;;;;;;;;;;;;;;;;
2022/07/04 22:40:37;;;;;;;1.80;1.20;;;27.00;41.10;;;;;;5745262;25;20373;-81
2022/07/04 22:57:04;;;;;;;;;;;;;;;;;;;;;
2022/07/04 22:59:55;;;;;;;2.27;1.60;;;27.00;41.30;;;;;;5805297;24;20415;-81
2022/07/04 23:02:51;;;;;;;1.67;1.20;;;27.00;41.20;;;;;;5807285;24;20399;-81
2022/07/04 23:36:42;;;;;;;1.50;1.40;;;27.00;41.30;;;;;;5911811;24;20383;-80
2022/07/04 23:53:39;;;;;;;2.47;1.63;;;26.90;41.30;;;;;;5884132;24;20381;-79
